createdAt,value
2023-04-22T00:00:17.155Z,91871.81
2023-04-22T00:02:47.322Z,91881.25
2023-04-22T00:05:19.360Z,91875.97
2023-04-22T00:07:48.987Z,91876.81
2023-04-22T00:10:17.798Z,91879.06
2023-04-22T00:12:46.308Z,91881.59
2023-04-22T00:15:15.996Z,91883.19
2023-04-22T00:17:46.110Z,91874.41
2023-04-22T00:20:16.811Z,91873.22
2023-04-22T00:22:45.560Z,91872.88
2023-04-22T00:25:14.325Z,91872.94
2023-04-22T00:27:43.234Z,91877.88
2023-04-22T00:30:13.810Z,91864.50
2023-04-22T00:32:42.574Z,91868.97
2023-04-22T00:35:11.498Z,91863.69
2023-04-22T00:37:41.511Z,91856.00
2023-04-22T00:40:11.950Z,91865.56
2023-04-22T00:42:40.934Z,91866.81
2023-04-22T00:45:13.839Z,91864.06
2023-04-22T00:47:43.381Z,91869.75
2023-04-22T00:50:12.303Z,91869.72
2023-04-22T00:52:42.155Z,91866.69
2023-04-22T00:55:11.888Z,91875.50
2023-04-22T00:57:41.757Z,91872.72
2023-04-22T01:00:11.728Z,91873.94
2023-04-22T01:02:40.479Z,91869.34
2023-04-22T01:05:10.671Z,91876.56
2023-04-22T01:07:39.383Z,91864.88
2023-04-22T01:10:10.654Z,91871.28
2023-04-22T01:12:39.384Z,91869.84
2023-04-22T01:15:09.783Z,91867.66
2023-04-22T01:17:38.611Z,91862.69
2023-04-22T01:20:10.488Z,91868.41
2023-04-22T01:22:43.671Z,91868.06
2023-04-22T01:25:13.770Z,91862.06
2023-04-22T01:27:43.015Z,91866.63
2023-04-22T01:30:13.003Z,91869.78
2023-04-22T01:32:42.587Z,91866.00
2023-04-22T01:35:12.193Z,91866.41
2023-04-22T01:37:41.275Z,91861.78
2023-04-22T01:40:14.137Z,91861.81
2023-04-22T01:42:42.932Z,91858.47
2023-04-22T01:45:13.456Z,91859.56
2023-04-22T01:47:41.960Z,91855.81
2023-04-22T01:50:11.593Z,91862.59
2023-04-22T01:52:40.488Z,91858.94
2023-04-22T01:55:10.694Z,91861.56
2023-04-22T01:57:40.801Z,91865.53
2023-04-22T02:00:11.115Z,91866.38
2023-04-22T02:02:39.632Z,91873.25
2023-04-22T02:05:09.912Z,91870.09
2023-04-22T02:07:38.764Z,91876.81
2023-04-22T02:10:09.490Z,91881.94
2023-04-22T02:12:39.600Z,91874.50
2023-04-22T02:15:09.574Z,91875.72
2023-04-22T02:17:38.743Z,91886.06
2023-04-22T02:20:09.946Z,91883.94
2023-04-22T02:22:39.190Z,91879.44
2023-04-22T02:25:09.631Z,91882.56
2023-04-22T02:27:39.674Z,91883.31
2023-04-22T02:30:09.802Z,91867.94
2023-04-22T02:32:40.238Z,91880.78
2023-04-22T02:35:09.799Z,91891.22
2023-04-22T02:37:38.368Z,91893.84
2023-04-22T02:40:08.890Z,91889.28
2023-04-22T02:42:37.457Z,91894.81
2023-04-22T02:45:09.006Z,91892.44
2023-04-22T02:47:37.454Z,91891.53
2023-04-22T02:50:07.300Z,91900.78
2023-04-22T02:52:35.973Z,91884.84
2023-04-22T02:55:04.492Z,91898.63
2023-04-22T02:57:33.011Z,91902.63
2023-04-22T03:00:01.484Z,91901.13
2023-04-22T03:02:31.462Z,91897.94
2023-04-22T03:05:00.960Z,91897.56
2023-04-22T03:07:29.463Z,91888.72
2023-04-22T03:09:58.239Z,91890.47
2023-04-22T03:12:26.950Z,91895.03
2023-04-22T03:14:55.446Z,91888.72
2023-04-22T03:17:24.001Z,91887.47
2023-04-22T03:19:53.851Z,91896.97
2023-04-22T03:22:22.306Z,91899.63
2023-04-22T03:24:50.779Z,91899.47
2023-04-22T03:27:19.231Z,91901.00
2023-04-22T03:29:47.872Z,91906.78
2023-04-22T03:32:16.477Z,91902.81
2023-04-22T03:34:45.255Z,91907.69
2023-04-22T03:37:15.086Z,91902.16
2023-04-22T03:39:43.523Z,91898.72
2023-04-22T03:42:13.576Z,91893.88
2023-04-22T03:44:42.022Z,91896.56
2023-04-22T03:47:10.780Z,91899.78
2023-04-22T03:49:39.811Z,91915.19
2023-04-22T03:52:08.510Z,91905.91
2023-04-22T03:54:38.365Z,91910.75
2023-04-22T03:57:07.113Z,91905.69
2023-04-22T03:59:35.537Z,91915.91
2023-04-22T04:02:04.270Z,91910.97
2023-04-22T04:04:33.439Z,91909.19
2023-04-22T04:07:02.512Z,91909.75
2023-04-22T04:09:31.222Z,91911.66
2023-04-22T04:12:01.471Z,91912.38
2023-04-22T04:14:29.938Z,91908.84
2023-04-22T04:16:58.640Z,91904.91
2023-04-22T04:19:27.085Z,91904.66
2023-04-22T04:21:55.686Z,91906.88
2023-04-22T04:24:24.200Z,91910.44
2023-04-22T04:26:53.701Z,91892.28
2023-04-22T04:29:24.046Z,91902.72
2023-04-22T04:31:52.852Z,91903.97
2023-04-22T04:34:21.405Z,91900.44
2023-04-22T04:36:50.717Z,91900.03
2023-04-22T04:39:19.290Z,91899.66
2023-04-22T04:41:49.108Z,91895.97
2023-04-22T04:44:17.578Z,91895.09
2023-04-22T04:46:47.384Z,91903.47
2023-04-22T04:49:15.836Z,91903.00
2023-04-22T04:51:44.349Z,91898.13
2023-04-22T04:54:13.102Z,91902.25
2023-04-22T04:56:41.686Z,91895.53
2023-04-22T04:59:10.228Z,91902.81
2023-04-22T05:01:39.546Z,91905.16
2023-04-22T05:04:09.569Z,91916.75
2023-04-22T05:06:38.142Z,91908.75
2023-04-22T05:09:08.064Z,91911.88
2023-04-22T05:11:37.085Z,91908.72
2023-04-22T05:14:06.451Z,91911.59
2023-04-22T05:16:35.147Z,91910.25
2023-04-22T05:19:03.653Z,91923.78
2023-04-22T05:21:33.811Z,91916.19
2023-04-22T05:24:02.530Z,91923.19
2023-04-22T05:26:31.001Z,91923.44
2023-04-22T05:28:59.613Z,91924.06
2023-04-22T05:31:29.171Z,91916.59
2023-04-22T05:33:57.977Z,91922.06
2023-04-22T05:36:30.552Z,91915.25
2023-04-22T05:39:01.205Z,91911.19
2023-04-22T05:41:29.690Z,91915.59
2023-04-22T05:43:58.187Z,91919.34
2023-04-22T05:46:26.903Z,91910.03
2023-04-22T05:48:56.161Z,91914.44
2023-04-22T05:51:24.847Z,91921.28
2023-04-22T05:53:53.337Z,91905.69
2023-04-22T05:56:23.346Z,91905.22
2023-04-22T05:58:51.788Z,91920.50
2023-04-22T06:01:20.579Z,91920.38
2023-04-22T06:03:49.987Z,91921.53
2023-04-22T06:06:18.872Z,91925.56
2023-04-22T06:08:47.327Z,91923.22
2023-04-22T06:11:15.760Z,91922.47
2023-04-22T06:13:45.627Z,91926.13
2023-04-22T06:16:14.131Z,91925.00
2023-04-22T06:18:43.552Z,91931.28
2023-04-22T06:21:12.124Z,91922.94
2023-04-22T06:23:40.640Z,91926.16
2023-04-22T06:26:09.187Z,91926.31
2023-04-22T06:28:37.904Z,91928.34
2023-04-22T06:31:07.787Z,91931.00
2023-04-22T06:33:36.678Z,91930.75
2023-04-22T06:36:05.963Z,91930.75
2023-04-22T06:38:34.640Z,91930.13
2023-04-22T06:41:03.090Z,91936.91
2023-04-22T06:43:31.772Z,91928.28
2023-04-22T06:46:00.272Z,91932.22
2023-04-22T06:48:30.086Z,91930.16
2023-04-22T06:50:58.586Z,91925.03
2023-04-22T06:53:27.271Z,91926.56
2023-04-22T06:55:55.734Z,91931.91
2023-04-22T06:58:24.202Z,91936.16
2023-04-22T07:00:52.694Z,91934.84
2023-04-22T07:03:21.363Z,91928.09
2023-04-22T07:05:51.374Z,91921.00
2023-04-22T07:08:20.109Z,91932.13
2023-04-22T07:10:48.542Z,91919.81
2023-04-22T07:13:17.247Z,91927.84
2023-04-22T07:15:46.508Z,91914.69
2023-04-22T07:18:14.937Z,91917.63
2023-04-22T07:20:43.409Z,91924.91
2023-04-22T07:23:13.227Z,91920.00
2023-04-22T07:25:41.927Z,91922.50
2023-04-22T07:28:10.430Z,91914.59
2023-04-22T07:30:39.155Z,91911.13
2023-04-22T07:33:07.790Z,91897.78
2023-04-22T07:35:36.357Z,91909.16
2023-04-22T07:38:05.240Z,91906.72
2023-04-22T07:40:35.789Z,91903.72
2023-04-22T07:43:05.771Z,91890.97
2023-04-22T07:45:34.755Z,91893.78
2023-04-22T07:48:04.438Z,91898.16
2023-04-22T07:50:33.132Z,91897.97
2023-04-22T07:53:01.736Z,91890.16
2023-04-22T07:55:30.198Z,91888.19
2023-04-22T07:58:01.067Z,91889.09
2023-04-22T08:00:29.698Z,91896.69
2023-04-22T08:02:58.583Z,91897.56
2023-04-22T08:05:27.573Z,91887.81
2023-04-22T08:07:56.146Z,91895.06
2023-04-22T08:10:24.838Z,91891.25
2023-04-22T08:12:53.306Z,91897.81
2023-04-22T08:15:23.593Z,91901.63
2023-04-22T08:17:52.139Z,91893.88
2023-04-22T08:20:20.773Z,91896.31
2023-04-22T08:22:51.300Z,91894.41
2023-04-22T08:25:20.001Z,91901.72
2023-04-22T08:27:48.440Z,91895.50
2023-04-22T08:30:17.057Z,91893.06
2023-04-22T08:32:47.604Z,91895.00
2023-04-22T08:35:16.208Z,91888.97
2023-04-22T08:37:44.863Z,91897.06
2023-04-22T08:40:13.506Z,91881.56
2023-04-22T08:42:42.310Z,91888.09
2023-04-22T08:45:12.371Z,91878.78
2023-04-22T08:47:41.833Z,91874.84
2023-04-22T08:50:12.814Z,91870.16
2023-04-22T08:52:43.342Z,91874.53
2023-04-22T08:55:11.789Z,91865.13
2023-04-22T08:57:40.924Z,91870.50
2023-04-22T09:00:11.005Z,91865.75
2023-04-22T09:02:44.944Z,91859.47
2023-04-22T09:05:15.980Z,91852.81
2023-04-22T09:07:44.629Z,91856.47
2023-04-22T09:10:16.499Z,91862.25
2023-04-22T09:12:45.115Z,91840.75
2023-04-22T09:15:14.215Z,91848.19
2023-04-22T09:17:43.675Z,91842.47
2023-04-22T09:20:16.041Z,91841.63
2023-04-22T09:22:46.376Z,91827.22
2023-04-22T09:25:19.024Z,91836.09
2023-04-22T09:27:51.842Z,91845.50
2023-04-22T09:30:24.962Z,91848.72
2023-04-22T09:32:55.988Z,91843.56
2023-04-22T09:35:33.908Z,91823.53
2023-04-22T09:38:06.373Z,91837.09
2023-04-22T09:40:35.786Z,91842.69
2023-04-22T09:43:06.358Z,91832.56
2023-04-22T09:45:36.825Z,91846.22
2023-04-22T09:48:10.581Z,91854.72
2023-04-22T09:50:42.191Z,91850.78
2023-04-22T09:53:12.777Z,91846.31
2023-04-22T09:55:43.699Z,91842.19
2023-04-22T09:58:14.444Z,91845.41
2023-04-22T10:00:47.179Z,91856.13
2023-04-22T10:03:16.100Z,91854.38
2023-04-22T10:05:46.566Z,91852.72
2023-04-22T10:08:17.234Z,91833.78
2023-04-22T10:10:46.751Z,91831.34
2023-04-22T10:13:15.257Z,91840.69
2023-04-22T10:15:49.541Z,91834.44
2023-04-22T10:18:24.043Z,91831.44
2023-04-22T10:20:56.037Z,91822.72
2023-04-22T10:23:26.198Z,91837.53
2023-04-22T10:25:56.837Z,91834.34
2023-04-22T10:28:30.177Z,91844.72
2023-04-22T10:30:58.974Z,91852.22
2023-04-22T10:33:40.171Z,91834.94
2023-04-22T10:36:17.284Z,91836.06
2023-04-22T10:39:22.220Z,91824.50
2023-04-22T10:41:59.404Z,91827.22
2023-04-22T10:44:31.579Z,91821.06
2023-04-22T10:47:02.954Z,91820.63
2023-04-22T10:49:33.121Z,91820.84
2023-04-22T10:52:05.181Z,91819.28
2023-04-22T10:55:01.660Z,91824.03
2023-04-22T10:57:40.238Z,91836.06
2023-04-22T11:00:35.296Z,91830.66
2023-04-22T11:03:15.114Z,91824.50
2023-04-22T11:05:44.799Z,91818.38
2023-04-22T11:08:23.981Z,91834.88
2023-04-22T11:10:55.273Z,91824.81
2023-04-22T11:13:24.177Z,91830.78
2023-04-22T11:15:56.330Z,91835.53
2023-04-22T11:18:28.463Z,91826.31
2023-04-22T11:20:57.191Z,91821.22
2023-04-22T11:23:29.429Z,91828.03
2023-04-22T11:25:59.286Z,91846.28
2023-04-22T11:28:28.065Z,91838.81
2023-04-22T11:31:04.723Z,91847.81
2023-04-22T11:33:35.281Z,91839.50
2023-04-22T11:36:03.776Z,91837.81
2023-04-22T11:38:33.628Z,91839.94
2023-04-22T11:41:02.085Z,91848.72
2023-04-22T11:43:31.106Z,91839.94
2023-04-22T11:45:59.633Z,91843.28
2023-04-22T11:48:28.144Z,91850.72
2023-04-22T11:51:11.935Z,91865.84
2023-04-22T11:53:52.189Z,91861.84
2023-04-22T11:56:22.480Z,91883.03
2023-04-22T11:58:50.922Z,91894.28
2023-04-22T12:01:19.632Z,91909.06
2023-04-22T12:03:48.196Z,91890.50
2023-04-22T12:06:18.165Z,91864.94
2023-04-22T12:08:51.388Z,91855.16
2023-04-22T12:11:22.372Z,91864.88
2023-04-22T12:13:51.206Z,91863.13
2023-04-22T12:16:20.704Z,91868.81
2023-04-22T12:18:54.306Z,91877.03
2023-04-22T12:21:26.022Z,91874.13
2023-04-22T12:23:59.358Z,91878.81
2023-04-22T12:26:28.901Z,91880.16
2023-04-22T12:28:59.320Z,91879.94
2023-04-22T12:31:28.775Z,91884.38
2023-04-22T12:33:57.696Z,91894.53
2023-04-22T12:36:26.256Z,91878.03
2023-04-22T12:38:56.533Z,91868.66
2023-04-22T12:41:25.072Z,91877.91
2023-04-22T12:43:58.508Z,91878.31
2023-04-22T12:46:27.027Z,91878.63
2023-04-22T12:48:55.792Z,91872.72
2023-04-22T12:51:24.505Z,91878.00
2023-04-22T12:53:53.192Z,91875.53
2023-04-22T12:56:23.045Z,91877.81
2023-04-22T12:58:51.568Z,91882.88
2023-04-22T13:01:20.057Z,91888.69
2023-04-22T13:03:53.152Z,91900.09
2023-04-22T13:06:21.738Z,91887.50
2023-04-22T13:08:50.240Z,91886.50
2023-04-22T13:11:18.917Z,91875.47
2023-04-22T13:13:48.920Z,91873.38
2023-04-22T13:16:17.612Z,91879.44
2023-04-22T13:18:46.337Z,91858.28
2023-04-22T13:21:15.354Z,91866.88
2023-04-22T13:23:44.195Z,91854.09
2023-04-22T13:26:12.771Z,91852.09
2023-04-22T13:28:41.194Z,91847.78
2023-04-22T13:31:11.407Z,91842.03
2023-04-22T13:33:39.870Z,91845.66
2023-04-22T13:36:08.632Z,91836.00
2023-04-22T13:38:37.352Z,91842.06
2023-04-22T13:41:06.098Z,91831.69
2023-04-22T13:43:34.599Z,91839.28
2023-04-22T13:46:03.092Z,91833.47
2023-04-22T13:48:32.943Z,91846.88
2023-04-22T13:51:01.383Z,91817.25
2023-04-22T13:53:30.041Z,91823.19
2023-04-22T13:55:58.497Z,91827.56
2023-04-22T13:58:26.966Z,91830.59
2023-04-22T14:00:55.571Z,91818.75
2023-04-22T14:03:24.443Z,91817.41
2023-04-22T14:05:54.524Z,91830.84
2023-04-22T14:08:22.964Z,91827.47
2023-04-22T14:10:51.416Z,91819.44
2023-04-22T14:13:21.285Z,91826.47
2023-04-22T14:15:50.576Z,91831.56
2023-04-22T14:18:19.031Z,91827.28
2023-04-22T14:20:47.658Z,91828.00
2023-04-22T14:23:17.590Z,91834.16
2023-04-22T14:25:47.122Z,91836.41
2023-04-22T14:28:17.273Z,91827.94
2023-04-22T14:30:45.891Z,91832.69
2023-04-22T14:33:14.386Z,91831.34
2023-04-22T14:35:42.863Z,91825.31
2023-04-22T14:38:12.922Z,91835.81
2023-04-22T14:40:42.976Z,91847.84
2023-04-22T14:43:11.758Z,91843.19
2023-04-22T14:45:40.589Z,91830.56
2023-04-22T14:48:09.139Z,91830.88
2023-04-22T14:50:37.978Z,91833.75
2023-04-22T14:53:06.558Z,91832.66
2023-04-22T14:55:36.735Z,91834.56
2023-04-22T14:58:07.038Z,91844.22
2023-04-22T15:00:35.507Z,91839.34
2023-04-22T15:03:04.511Z,91839.16
2023-04-22T15:05:33.372Z,91842.53
2023-04-22T15:08:01.910Z,91850.44
2023-04-22T15:10:30.335Z,91852.19
2023-04-22T15:12:58.933Z,91854.88
2023-04-22T15:15:28.940Z,91854.47
2023-04-22T15:17:57.764Z,91850.69
2023-04-22T15:20:26.684Z,91849.78
2023-04-22T15:22:56.169Z,91837.38
2023-04-22T15:25:27.086Z,91841.53
2023-04-22T15:27:57.227Z,91846.09
2023-04-22T15:30:25.901Z,91844.97
2023-04-22T15:32:55.772Z,91846.34
2023-04-22T15:35:25.497Z,91849.47
2023-04-22T15:37:54.248Z,91848.94
2023-04-22T15:40:22.916Z,91842.31
2023-04-22T15:42:51.416Z,91845.88
2023-04-22T15:45:20.038Z,91842.97
2023-04-22T15:47:48.701Z,91836.94
2023-04-22T15:50:19.342Z,91840.06
2023-04-22T15:52:47.841Z,91841.94
2023-04-22T15:55:16.380Z,91845.09
2023-04-22T15:57:45.052Z,91866.88
2023-04-22T16:00:15.230Z,91866.31
2023-04-22T16:02:45.080Z,91874.50
2023-04-22T16:05:14.571Z,91897.47
2023-04-22T16:07:44.905Z,91906.22
2023-04-22T16:10:13.438Z,91906.78
2023-04-22T16:12:43.017Z,91915.75
2023-04-22T16:15:12.565Z,91916.56
2023-04-22T16:17:41.101Z,91911.00
2023-04-22T16:20:11.481Z,91897.44
2023-04-22T16:22:40.004Z,91910.91
2023-04-22T16:25:11.167Z,91910.75
2023-04-22T16:27:39.624Z,91907.44
2023-04-22T16:30:09.639Z,91915.91
2023-04-22T16:32:38.425Z,91917.19
2023-04-22T16:35:08.673Z,91912.91
2023-04-22T16:37:37.109Z,91914.09
2023-04-22T16:40:06.763Z,91905.06
2023-04-22T16:42:37.372Z,91893.66
2023-04-22T16:45:07.997Z,91901.81
2023-04-22T16:47:36.608Z,91899.09
2023-04-22T16:50:06.110Z,91907.53
2023-04-22T16:52:34.791Z,91903.78
2023-04-22T16:55:03.505Z,91900.91
2023-04-22T16:57:32.002Z,91900.38
2023-04-22T17:00:01.801Z,91907.75
2023-04-22T17:02:30.413Z,91911.63
2023-04-22T17:05:01.171Z,91905.78
2023-04-22T17:07:29.628Z,91898.59
2023-04-22T17:09:58.121Z,91897.88
2023-04-22T17:12:26.883Z,91890.06
2023-04-22T17:14:55.537Z,91890.66
2023-04-22T17:17:26.093Z,91874.41
2023-04-22T17:19:54.544Z,91887.03
2023-04-22T17:22:24.937Z,91887.88
2023-04-22T17:24:53.449Z,91889.50
2023-04-22T17:27:21.882Z,91888.63
2023-04-22T17:29:50.314Z,91894.94
2023-04-22T17:32:18.909Z,91893.88
2023-04-22T17:34:49.328Z,91886.72
2023-04-22T17:37:17.825Z,91892.25
2023-04-22T17:39:46.249Z,91890.19
2023-04-22T17:42:14.780Z,91893.72
2023-04-22T17:44:43.318Z,91891.38
2023-04-22T17:47:11.826Z,91899.34
2023-04-22T17:49:40.468Z,91896.25
2023-04-22T17:52:10.677Z,91892.91
2023-04-22T17:54:39.398Z,91894.84
2023-04-22T17:57:07.875Z,91892.16
2023-04-22T17:59:36.311Z,91895.88
2023-04-22T18:02:05.324Z,91880.78
2023-04-22T18:04:34.074Z,91897.91
2023-04-22T18:07:02.547Z,91900.59
2023-04-22T18:09:32.412Z,91905.66
2023-04-22T18:12:01.838Z,91911.47
2023-04-22T18:14:30.475Z,91906.38
2023-04-22T18:16:58.976Z,91905.53
2023-04-22T18:19:27.574Z,91913.16
2023-04-22T18:22:00.172Z,91915.69
2023-04-22T18:24:29.141Z,91904.75
2023-04-22T18:26:58.979Z,91909.78
2023-04-22T18:29:27.461Z,91900.41
2023-04-22T18:31:56.254Z,91885.84
2023-04-22T18:34:24.800Z,91881.13
2023-04-22T18:36:53.342Z,91887.56
2023-04-22T18:39:22.242Z,91885.56
2023-04-22T18:41:50.920Z,91886.13
2023-04-22T18:44:21.020Z,91896.44
2023-04-22T18:46:50.442Z,91892.22
2023-04-22T18:49:19.233Z,91899.06
2023-04-22T18:51:49.317Z,91893.09
2023-04-22T18:54:17.837Z,91906.22
2023-04-22T18:56:46.589Z,91902.25
2023-04-22T18:59:15.152Z,91911.19
2023-04-22T19:01:45.431Z,91913.94
2023-04-22T19:04:14.084Z,91909.75
2023-04-22T19:06:42.597Z,91908.34
2023-04-22T19:09:11.318Z,91919.50
2023-04-22T19:11:40.142Z,91923.41
2023-04-22T19:14:08.855Z,91914.34
2023-04-22T19:16:37.277Z,91909.13
2023-04-22T19:19:07.388Z,91914.97
2023-04-22T19:21:35.994Z,91919.16
2023-04-22T19:24:05.218Z,91918.06
2023-04-22T19:26:33.656Z,91926.59
2023-04-22T19:29:02.508Z,91911.03
2023-04-22T19:31:31.196Z,91925.16
2023-04-22T19:34:02.793Z,91927.53
2023-04-22T19:36:32.664Z,91922.56
2023-04-22T19:39:01.099Z,91918.69
2023-04-22T19:41:33.511Z,91917.69
2023-04-22T19:44:02.425Z,91918.25
2023-04-22T19:46:31.115Z,91906.72
2023-04-22T19:49:00.556Z,91911.25
2023-04-22T19:51:29.543Z,91915.06
2023-04-22T19:53:59.752Z,91906.31
2023-04-22T19:56:29.407Z,91903.22
2023-04-22T19:58:58.247Z,91908.44
2023-04-22T20:01:27.975Z,91905.41
2023-04-22T20:03:57.336Z,91899.66
2023-04-22T20:06:26.471Z,91906.63
2023-04-22T20:08:57.678Z,91906.13
2023-04-22T20:11:29.503Z,91906.56
2023-04-22T20:13:58.660Z,91901.25
2023-04-22T20:16:28.212Z,91897.22
2023-04-22T20:18:56.972Z,91902.19
2023-04-22T20:21:25.883Z,91903.63
2023-04-22T20:23:57.905Z,91896.66
2023-04-22T20:26:28.168Z,91900.13
2023-04-22T20:28:58.867Z,91901.72
2023-04-22T20:31:27.703Z,91900.94
2023-04-22T20:33:57.485Z,91896.09
2023-04-22T20:36:26.515Z,91898.50
2023-04-22T20:38:59.405Z,91892.22
2023-04-22T20:41:29.641Z,91891.56
2023-04-22T20:43:58.461Z,91893.84
2023-04-22T20:46:28.384Z,91892.34
2023-04-22T20:48:56.952Z,91898.81
2023-04-22T20:51:25.788Z,91898.28
2023-04-22T20:53:55.081Z,91898.31
2023-04-22T20:56:23.719Z,91903.44
2023-04-22T20:58:53.519Z,91902.09
2023-04-22T21:01:22.270Z,91909.41
2023-04-22T21:03:53.572Z,91899.19
2023-04-22T21:06:22.960Z,91895.72
2023-04-22T21:08:51.920Z,91903.78
2023-04-22T21:11:21.069Z,91895.91
2023-04-22T21:13:50.305Z,91899.66
2023-04-22T21:16:20.889Z,91903.56
2023-04-22T21:18:50.564Z,91896.19
2023-04-22T21:21:20.830Z,91900.50
2023-04-22T21:23:50.131Z,91894.56
2023-04-22T21:26:19.945Z,91893.53
2023-04-22T21:28:50.056Z,91900.88
2023-04-22T21:31:21.123Z,91903.63
2023-04-22T21:33:49.557Z,91902.31
2023-04-22T21:36:18.290Z,91907.22
2023-04-22T21:38:47.095Z,91902.50
2023-04-22T21:41:15.573Z,91907.00
2023-04-22T21:43:44.253Z,91911.22
2023-04-22T21:46:12.929Z,91905.97
2023-04-22T21:48:42.732Z,91914.25
2023-04-22T21:51:11.252Z,91912.56
2023-04-22T21:53:40.220Z,91907.28
2023-04-22T21:56:08.770Z,91909.41
2023-04-22T21:58:37.273Z,91909.75
2023-04-22T22:01:05.820Z,91910.13
2023-04-22T22:03:36.370Z,91906.63
2023-04-22T22:06:07.169Z,91901.06
2023-04-22T22:08:35.633Z,91906.72
2023-04-22T22:11:07.047Z,91906.59
2023-04-22T22:13:37.608Z,91905.59
2023-04-22T22:16:06.610Z,91913.25
2023-04-22T22:18:35.744Z,91913.97
2023-04-22T22:21:05.786Z,91910.44
2023-04-22T22:23:34.202Z,91912.84
2023-04-22T22:26:02.672Z,91912.28
2023-04-22T22:28:31.138Z,91909.06
2023-04-22T22:31:02.431Z,91909.25
2023-04-22T22:33:31.210Z,91906.69
2023-04-22T22:35:59.786Z,91912.81
2023-04-22T22:38:29.675Z,91913.91
2023-04-22T22:40:58.100Z,91911.94
2023-04-22T22:43:26.982Z,91913.25
2023-04-22T22:45:55.467Z,91912.53
2023-04-22T22:48:24.196Z,91917.25
2023-04-22T22:50:53.042Z,91913.84
2023-04-22T22:53:22.237Z,91917.59
2023-04-22T22:55:52.288Z,91919.19
2023-04-22T22:58:20.733Z,91920.44
2023-04-22T23:00:49.532Z,91928.38
2023-04-22T23:03:19.937Z,91930.38
2023-04-22T23:05:48.957Z,91924.88
2023-04-22T23:08:17.393Z,91932.28
2023-04-22T23:10:45.859Z,91929.22
2023-04-22T23:13:15.777Z,91926.44
2023-04-22T23:15:44.270Z,91918.09
2023-04-22T23:18:15.204Z,91920.50
2023-04-22T23:20:44.659Z,91932.03
2023-04-22T23:23:14.265Z,91920.25
2023-04-22T23:25:43.398Z,91926.47
2023-04-22T23:28:12.929Z,91911.72
2023-04-22T23:30:44.018Z,91921.38
2023-04-22T23:33:15.623Z,91921.78
2023-04-22T23:35:45.952Z,91918.66
2023-04-22T23:38:14.425Z,91926.69
2023-04-22T23:40:42.857Z,91928.66
2023-04-22T23:43:11.828Z,91928.31
2023-04-22T23:45:40.334Z,91927.03
2023-04-22T23:48:10.377Z,91920.19
2023-04-22T23:50:38.836Z,91922.59
2023-04-22T23:53:07.277Z,91918.59
2023-04-22T23:55:37.230Z,91921.72
2023-04-22T23:58:06.610Z,91912.13
